Time;durP1;ratioP1;P1;durP2;ratioP2;P2;SDS_P1;SDS_P2;PMS_P1;PMS_P2;Temp;Humidity;BMP_temperature;BMP_pressure;BME280_temperature;BME280_humidity;BME280_pressure;Samples;Min_cycle;Max_cycle;Signal;HPM_P1;HPM_P2
2022/03/07 00:02:13;;;;;;;23.92;15.80;;;-0.60;79.40;;;;;;6310536;22;19996;-65
2022/03/07 00:04:39;;;;;;;26.08;15.98;;;-0.50;79.20;;;;;;6311340;22;19995;-63
2022/03/07 00:07:05;;;;;;;23.30;15.70;;;-0.60;79.20;;;;;;6310359;22;20008;-64
2022/03/07 00:09:32;;;;;;;21.10;14.35;;;-0.60;79.30;;;;;;6309194;22;20261;-64
2022/03/07 00:11:58;;;;;;;19.85;14.43;;;-0.60;78.80;;;;;;6311635;22;19998;-64
2022/03/07 00:14:26;;;;;;;22.17;15.10;;;-0.60;78.70;;;;;;6310532;22;20033;-65
2022/03/07 00:16:52;;;;;;;24.20;15.68;;;-0.60;78.60;;;;;;6311413;22;20062;-63
2022/03/07 00:19:19;;;;;;;21.13;15.50;;;-0.50;78.30;;;;;;6311843;22;20026;-64
2022/03/07 00:21:45;;;;;;;22.00;15.43;;;-0.50;78.50;;;;;;6311619;22;20003;-63
2022/03/07 00:24:10;;;;;;;21.38;15.60;;;-0.60;79.00;;;;;;6310126;22;20307;-64
2022/03/07 00:26:38;;;;;;;22.70;15.57;;;-0.50;79.30;;;;;;6311643;22;20071;-64
2022/03/07 00:29:04;;;;;;;20.65;15.38;;;-0.60;79.20;;;;;;6311370;22;20371;-65
2022/03/07 00:31:30;;;;;;;22.60;15.20;;;-0.60;79.10;;;;;;6310570;22;20040;-65
2022/03/07 00:33:56;;;;;;;19.15;14.90;;;-0.60;78.80;;;;;;6311468;22;20265;-63
2022/03/07 00:36:22;;;;;;;22.98;15.43;;;-0.60;79.20;;;;;;6311270;22;20359;-63
2022/03/07 00:38:48;;;;;;;21.83;14.90;;;-0.60;78.80;;;;;;6310091;22;20010;-63
2022/03/07 00:41:14;;;;;;;26.88;15.63;;;-0.60;78.60;;;;;;6311414;22;20019;-63
2022/03/07 00:43:41;;;;;;;27.10;15.45;;;-0.60;78.60;;;;;;6311375;22;20006;-63
2022/03/07 00:46:07;;;;;;;22.98;15.38;;;-0.60;78.40;;;;;;6311699;22;19996;-66
2022/03/07 00:48:33;;;;;;;22.20;14.90;;;-0.60;78.50;;;;;;6311927;22;20003;-66
2022/03/07 00:50:59;;;;;;;21.90;15.00;;;-0.60;78.40;;;;;;6311829;22;20003;-65
2022/03/07 00:53:26;;;;;;;24.38;14.45;;;-0.60;78.30;;;;;;6310301;22;20387;-65
2022/03/07 00:55:53;;;;;;;20.70;15.15;;;-0.60;78.30;;;;;;6311622;22;20332;-65
2022/03/07 00:58:20;;;;;;;21.55;15.85;;;-0.60;78.50;;;;;;6311888;22;20003;-66
2022/03/07 01:00:46;;;;;;;22.38;15.23;;;-0.70;79.20;;;;;;6311671;22;20082;-65
2022/03/07 01:03:14;;;;;;;19.88;14.60;;;-0.60;79.40;;;;;;6311791;22;20006;-65
2022/03/07 01:05:41;;;;;;;24.10;16.75;;;-0.60;79.40;;;;;;6310964;22;20015;-65
2022/03/07 01:08:08;;;;;;;22.65;15.73;;;-0.70;79.30;;;;;;6309397;22;20368;-65
2022/03/07 01:10:35;;;;;;;23.50;16.33;;;-0.70;79.80;;;;;;6311348;22;20060;-66
2022/03/07 01:13:04;;;;;;;23.17;16.50;;;-0.70;80.10;;;;;;6311806;22;20078;-65
2022/03/07 01:15:32;;;;;;;23.98;15.82;;;-0.70;80.10;;;;;;6310928;22;20011;-65
2022/03/07 01:18:02;;;;;;;22.95;16.15;;;-0.70;80.10;;;;;;6311660;22;20003;-64
2022/03/07 01:20:28;;;;;;;22.65;15.40;;;-0.80;80.30;;;;;;6311458;22;20034;-65
2022/03/07 01:22:54;;;;;;;22.83;16.20;;;-0.80;80.30;;;;;;6311366;22;20003;-64
2022/03/07 01:25:20;;;;;;;25.38;16.63;;;-0.80;80.50;;;;;;6310169;22;19999;-63
2022/03/07 01:27:54;;;;;;;22.00;16.17;;;-0.80;80.30;;;;;;6311155;22;20000;-65
2022/03/07 01:30:21;;;;;;;22.95;15.88;;;-0.80;80.50;;;;;;6310755;22;20408;-65
2022/03/07 01:32:47;;;;;;;22.08;16.23;;;-0.90;80.50;;;;;;6311516;22;20000;-65
2022/03/07 01:35:13;;;;;;;22.40;16.23;;;-0.90;80.90;;;;;;6310920;22;20018;-66
2022/03/07 01:37:39;;;;;;;24.85;17.35;;;-0.90;81.20;;;;;;6310579;22;20010;-65
2022/03/07 01:40:07;;;;;;;23.67;15.95;;;-0.90;81.10;;;;;;6309506;22;20065;-65
2022/03/07 01:42:32;;;;;;;26.90;17.80;;;-1.00;81.80;;;;;;6310872;22;20030;-65
2022/03/07 01:45:14;;;;;;;24.45;16.95;;;-1.10;81.70;;;;;;6311057;22;20356;-65
2022/03/07 01:47:40;;;;;;;25.02;16.45;;;-1.10;82.30;;;;;;6310753;22;20070;-64
2022/03/07 01:50:09;;;;;;;23.50;17.00;;;-1.10;82.40;;;;;;6311298;22;20000;-63
2022/03/07 01:52:39;;;;;;;25.08;17.25;;;-1.10;82.50;;;;;;6309664;22;20242;-64
2022/03/07 01:55:10;;;;;;;22.13;15.65;;;-1.20;82.40;;;;;;6307771;22;20010;-64
2022/03/07 01:57:41;;;;;;;26.42;17.25;;;-1.20;82.90;;;;;;6311043;22;20003;-64
2022/03/07 02:00:11;;;;;;;25.13;16.08;;;-1.20;83.00;;;;;;6311132;22;20010;-63
2022/03/07 02:02:37;;;;;;;22.52;16.20;;;-1.30;83.50;;;;;;6309633;22;19999;-64
2022/03/07 02:05:07;;;;;;;22.15;16.23;;;-1.30;83.60;;;;;;6310329;22;20006;-64
2022/03/07 02:07:33;;;;;;;26.80;16.48;;;-1.30;84.00;;;;;;6311056;22;20003;-65
2022/03/07 02:09:59;;;;;;;24.35;17.67;;;-1.30;84.30;;;;;;6308009;22;19995;-63
2022/03/07 02:12:26;;;;;;;28.45;17.77;;;-1.40;84.70;;;;;;6310523;22;20303;-63
2022/03/07 02:14:52;;;;;;;23.65;17.02;;;-1.50;85.00;;;;;;6310293;22;20003;-65
2022/03/07 02:17:18;;;;;;;27.38;16.75;;;-1.50;85.10;;;;;;6310289;22;20007;-64
2022/03/07 02:19:44;;;;;;;24.15;17.23;;;-1.60;85.40;;;;;;6310138;22;20007;-63
2022/03/07 02:22:10;;;;;;;26.95;16.75;;;-1.60;85.50;;;;;;6309825;22;20006;-65
2022/03/07 02:24:37;;;;;;;26.88;17.40;;;-1.60;85.60;;;;;;6309261;22;19995;-65
2022/03/07 02:27:07;;;;;;;23.52;16.70;;;-1.60;85.60;;;;;;6310432;22;19999;-65
2022/03/07 02:29:34;;;;;;;26.15;17.13;;;-1.60;85.70;;;;;;6310738;22;20026;-64
2022/03/07 02:32:05;;;;;;;27.55;17.42;;;-1.70;86.00;;;;;;6310906;22;20007;-65
2022/03/07 02:34:31;;;;;;;24.17;15.90;;;-1.70;86.10;;;;;;6310505;22;20267;-63
2022/03/07 02:36:57;;;;;;;26.45;17.42;;;-1.80;86.30;;;;;;6310603;22;20365;-65
2022/03/07 02:39:26;;;;;;;24.55;17.38;;;-1.80;86.30;;;;;;6308686;22;20011;-64
2022/03/07 02:41:53;;;;;;;23.90;16.27;;;-1.90;86.60;;;;;;6310197;22;20234;-63
2022/03/07 02:44:19;;;;;;;29.70;17.73;;;-2.00;86.70;;;;;;6310672;22;20120;-63
2022/03/07 02:46:45;;;;;;;22.90;16.13;;;-2.10;87.00;;;;;;6310471;22;20033;-65
2022/03/07 02:49:11;;;;;;;25.80;17.13;;;-2.20;87.30;;;;;;6310614;22;19995;-65
2022/03/07 02:51:39;;;;;;;23.92;16.63;;;-2.30;87.70;;;;;;6310331;22;20084;-64
2022/03/07 02:54:05;;;;;;;26.10;16.88;;;-2.40;87.90;;;;;;6308425;22;20392;-63
2022/03/07 02:56:31;;;;;;;22.65;15.52;;;-2.60;88.20;;;;;;6310298;22;20065;-65
2022/03/07 02:58:58;;;;;;;27.60;17.55;;;-2.80;88.80;;;;;;6309051;22;20065;-65
2022/03/07 03:01:25;;;;;;;26.35;17.48;;;-2.90;89.50;;;;;;6309865;22;20004;-63
2022/03/07 03:03:54;;;;;;;24.60;17.25;;;-3.10;89.90;;;;;;6305692;22;20388;-63
2022/03/07 03:06:22;;;;;;;27.75;17.92;;;-3.30;90.40;;;;;;6309738;22;20011;-63
2022/03/07 03:08:48;;;;;;;25.33;17.73;;;-3.60;91.20;;;;;;6308743;22;20010;-65
2022/03/07 03:11:17;;;;;;;26.02;17.63;;;-3.80;91.90;;;;;;6309986;22;20049;-66
2022/03/07 03:13:43;;;;;;;25.02;17.95;;;-4.00;92.60;;;;;;6308456;22;20007;-63
2022/03/07 03:16:10;;;;;;;30.02;19.20;;;-4.10;93.30;;;;;;6306656;22;20072;-63
2022/03/07 03:18:36;;;;;;;26.15;17.40;;;-4.20;93.90;;;;;;6306753;22;20007;-65
2022/03/07 03:21:01;;;;;;;29.75;18.23;;;-4.40;94.30;;;;;;6306624;22;20115;-65
2022/03/07 03:23:27;;;;;;;28.75;19.63;;;-4.40;94.70;;;;;;6305260;22;19996;-64
2022/03/07 03:25:56;;;;;;;31.95;20.58;;;-4.50;94.90;;;;;;6306864;22;20000;-63
2022/03/07 03:28:23;;;;;;;31.65;18.95;;;-4.60;95.40;;;;;;6307915;22;20006;-64
2022/03/07 03:30:51;;;;;;;31.75;20.73;;;-4.60;95.80;;;;;;6308993;22;20086;-62
2022/03/07 03:33:16;;;;;;;29.95;19.05;;;-4.60;96.10;;;;;;6309528;22;20303;-62
2022/03/07 03:35:42;;;;;;;28.50;18.77;;;-4.50;96.10;;;;;;6309588;22;19999;-63
2022/03/07 03:38:08;;;;;;;26.52;19.98;;;-4.50;96.10;;;;;;6307445;22;19996;-63
2022/03/07 03:40:35;;;;;;;33.42;20.60;;;-4.50;96.00;;;;;;6310206;22;20010;-65
2022/03/07 03:43:01;;;;;;;29.35;19.80;;;-4.60;95.90;;;;;;6308540;22;20003;-65
2022/03/07 03:45:27;;;;;;;30.95;20.77;;;-4.70;96.10;;;;;;6309537;22;20010;-65
2022/03/07 03:47:56;;;;;;;28.88;19.60;;;-4.70;96.40;;;;;;6308829;22;20014;-65
2022/03/07 03:50:25;;;;;;;34.10;19.98;;;-4.80;96.50;;;;;;6309516;22;19999;-65
2022/03/07 03:52:51;;;;;;;30.48;19.55;;;-4.80;96.70;;;;;;6309485;22;20074;-65
2022/03/07 03:55:21;;;;;;;35.42;22.42;;;-4.80;96.70;;;;;;6308060;22;20027;-65
2022/03/07 03:57:47;;;;;;;29.90;19.58;;;-4.90;96.70;;;;;;6308228;22;20365;-65
2022/03/07 04:00:18;;;;;;;47.13;29.27;;;-5.00;96.80;;;;;;6309388;22;20424;-65
2022/03/07 04:02:49;;;;;;;30.75;20.40;;;-5.10;96.90;;;;;;6309076;22;20002;-65
2022/03/07 04:05:16;;;;;;;31.75;20.58;;;-5.00;97.20;;;;;;6309884;22;20226;-65
2022/03/07 04:07:44;;;;;;;33.72;22.10;;;-5.00;97.40;;;;;;6310962;22;20120;-65
2022/03/07 04:10:13;;;;;;;31.60;22.58;;;-5.10;97.30;;;;;;6309708;22;20003;-66
2022/03/07 04:12:39;;;;;;;30.95;21.55;;;-5.10;97.30;;;;;;6309516;22;20063;-63
2022/03/07 04:15:07;;;;;;;29.95;20.80;;;-5.10;97.50;;;;;;6311373;22;19999;-62
2022/03/07 04:17:36;;;;;;;31.70;19.90;;;-5.10;97.50;;;;;;6310371;22;20073;-64
2022/03/07 04:20:03;;;;;;;30.52;20.02;;;-5.00;97.50;;;;;;6310149;22;20027;-64
2022/03/07 04:22:29;;;;;;;34.10;20.65;;;-4.90;97.70;;;;;;6311213;22;20462;-64
2022/03/07 04:24:55;;;;;;;30.05;20.50;;;-4.90;97.20;;;;;;6309957;22;20023;-63
2022/03/07 04:27:21;;;;;;;28.67;19.38;;;-5.00;97.20;;;;;;6311137;22;19999;-65
2022/03/07 04:29:48;;;;;;;30.58;20.08;;;-5.10;97.20;;;;;;6311231;22;19999;-62
2022/03/07 04:32:13;;;;;;;28.20;19.08;;;-5.00;97.70;;;;;;6310909;22;20041;-64
2022/03/07 04:34:39;;;;;;;31.48;20.38;;;-4.90;97.50;;;;;;6311441;22;20364;-63
2022/03/07 04:37:05;;;;;;;35.17;21.67;;;-4.90;97.30;;;;;;6311751;22;19999;-63
2022/03/07 04:39:31;;;;;;;31.20;20.42;;;-5.00;97.20;;;;;;6310266;22;19996;-63
2022/03/07 04:41:57;;;;;;;31.63;20.25;;;-5.00;97.20;;;;;;6311798;22;20003;-63
2022/03/07 04:44:23;;;;;;;30.88;19.35;;;-5.10;97.20;;;;;;6311847;22;20067;-65
2022/03/07 04:46:49;;;;;;;29.88;21.23;;;-5.10;97.40;;;;;;6311729;22;20052;-63
2022/03/07 04:49:15;;;;;;;32.67;21.98;;;-5.20;97.30;;;;;;6311116;22;19999;-63
2022/03/07 04:51:45;;;;;;;31.83;20.17;;;-5.20;97.50;;;;;;6311611;22;20007;-63
2022/03/07 04:54:15;;;;;;;33.25;21.42;;;-5.40;97.50;;;;;;6309677;22;20007;-64
2022/03/07 04:56:47;;;;;;;32.65;20.42;;;-5.40;97.60;;;;;;6311342;22;20045;-62
2022/03/07 04:59:14;;;;;;;30.67;18.95;;;-5.50;97.80;;;;;;6310654;22;20007;-64
2022/03/07 05:01:40;;;;;;;31.50;20.55;;;-5.50;97.90;;;;;;6310635;22;20004;-64
2022/03/07 05:04:06;;;;;;;29.20;19.40;;;-5.40;98.00;;;;;;6310788;22;20074;-64
2022/03/07 05:06:31;;;;;;;28.05;18.08;;;-5.40;97.90;;;;;;6310673;22;20407;-64
2022/03/07 05:08:57;;;;;;;26.65;17.98;;;-5.20;97.90;;;;;;6309327;22;20361;-64
2022/03/07 05:11:24;;;;;;;25.38;17.67;;;-5.10;97.80;;;;;;6311032;22;20010;-62
2022/03/07 05:13:49;;;;;;;26.02;18.05;;;-5.20;97.50;;;;;;6310718;22;20053;-64
2022/03/07 05:16:15;;;;;;;28.13;17.92;;;-5.20;97.40;;;;;;6310469;22;20268;-65
2022/03/07 05:18:41;;;;;;;26.63;16.85;;;-5.20;97.40;;;;;;6309025;22;20242;-63
2022/03/07 05:21:07;;;;;;;27.25;18.40;;;-5.20;97.20;;;;;;6310421;22;20088;-65
2022/03/07 05:23:36;;;;;;;28.13;18.92;;;-5.20;97.30;;;;;;6308428;22;20056;-64
2022/03/07 05:26:04;;;;;;;26.92;17.27;;;-5.10;97.30;;;;;;6309029;22;20006;-65
2022/03/07 05:28:32;;;;;;;27.75;17.58;;;-5.10;97.20;;;;;;6310616;22;19995;-62
2022/03/07 05:30:58;;;;;;;26.67;17.13;;;-5.10;97.10;;;;;;6310077;22;20279;-62
2022/03/07 05:33:24;;;;;;;28.08;18.63;;;-5.10;97.00;;;;;;6310226;22;20012;-64
2022/03/07 05:35:51;;;;;;;27.50;17.23;;;-5.10;97.00;;;;;;6308956;22;20297;-65
2022/03/07 05:38:17;;;;;;;27.63;18.00;;;-5.00;96.80;;;;;;6308567;22;20508;-63
2022/03/07 05:40:43;;;;;;;25.77;17.88;;;-5.00;96.60;;;;;;6310925;22;20056;-63
2022/03/07 05:43:09;;;;;;;28.42;18.00;;;-5.00;96.50;;;;;;6310554;22;19999;-62
2022/03/07 05:45:35;;;;;;;28.48;19.10;;;-5.00;96.50;;;;;;6310606;22;20010;-64
2022/03/07 05:48:01;;;;;;;26.10;17.85;;;-5.00;96.50;;;;;;6309976;22;20002;-62
2022/03/07 05:50:27;;;;;;;24.38;17.65;;;-5.00;96.40;;;;;;6310349;22;20007;-64
2022/03/07 05:52:53;;;;;;;28.50;17.67;;;-5.00;96.30;;;;;;6309289;22;20091;-64
2022/03/07 05:55:19;;;;;;;27.48;18.08;;;-4.90;96.20;;;;;;6308829;22;20046;-63
2022/03/07 05:57:45;;;;;;;28.80;17.83;;;-4.80;96.10;;;;;;6310484;22;20260;-63
2022/03/07 06:00:11;;;;;;;29.42;18.15;;;-4.80;95.90;;;;;;6309586;22;19999;-64
2022/03/07 06:02:38;;;;;;;29.48;19.00;;;-4.80;95.90;;;;;;6310255;22;19999;-61
2022/03/07 06:05:05;;;;;;;35.25;21.88;;;-4.60;95.70;;;;;;6310298;22;20027;-64
2022/03/07 06:07:31;;;;;;;30.13;19.38;;;-4.60;95.40;;;;;;6310058;22;20072;-62
2022/03/07 06:09:57;;;;;;;31.70;19.70;;;-4.40;94.90;;;;;;6308887;22;19995;-62
2022/03/07 06:12:26;;;;;;;33.40;20.38;;;-4.30;94.30;;;;;;6310809;22;20068;-62
2022/03/07 06:14:52;;;;;;;35.70;21.30;;;-4.40;94.20;;;;;;6310064;22;20003;-62
2022/03/07 06:17:19;;;;;;;36.47;22.10;;;-4.40;94.30;;;;;;6309157;22;20428;-64
2022/03/07 06:19:44;;;;;;;38.75;22.15;;;-4.40;94.40;;;;;;6310449;22;19996;-62
2022/03/07 06:22:11;;;;;;;33.58;21.55;;;-4.40;94.30;;;;;;6310524;22;20063;-63
2022/03/07 06:24:36;;;;;;;40.47;25.95;;;-4.50;94.20;;;;;;6309389;22;20023;-64
2022/03/07 06:27:03;;;;;;;35.90;22.63;;;-4.60;94.70;;;;;;6310425;22;20001;-63
2022/03/07 06:29:29;;;;;;;31.98;21.73;;;-4.60;94.70;;;;;;6310169;22;20433;-62
2022/03/07 06:31:55;;;;;;;32.08;20.05;;;-4.50;94.90;;;;;;6310544;22;19999;-62
2022/03/07 06:34:21;;;;;;;28.08;17.73;;;-4.40;94.60;;;;;;6310854;22;20007;-62
2022/03/07 06:36:49;;;;;;;30.98;19.77;;;-4.30;94.40;;;;;;6309869;22;20375;-65
2022/03/07 06:39:16;;;;;;;27.17;18.15;;;-4.30;94.20;;;;;;6309116;22;20003;-64
2022/03/07 06:41:42;;;;;;;26.90;17.98;;;-4.20;93.90;;;;;;6310107;22;20053;-65
2022/03/07 06:44:08;;;;;;;28.10;17.67;;;-4.10;93.90;;;;;;6308826;22;19999;-64
2022/03/07 06:46:34;;;;;;;26.00;16.88;;;-4.00;93.40;;;;;;6310366;22;19995;-65
2022/03/07 06:49:00;;;;;;;34.42;18.95;;;-3.90;93.20;;;;;;6310155;22;20003;-64
2022/03/07 06:51:26;;;;;;;25.42;17.05;;;-3.80;92.80;;;;;;6309650;22;20025;-64
2022/03/07 06:53:51;;;;;;;26.85;18.52;;;-3.60;92.20;;;;;;6309215;22;20003;-64
2022/03/07 06:56:20;;;;;;;28.83;17.85;;;-3.50;91.70;;;;;;6310323;22;20082;-64
2022/03/07 06:58:47;;;;;;;27.02;18.15;;;-3.40;91.50;;;;;;6310485;22;20010;-64
2022/03/07 07:01:14;;;;;;;28.30;18.02;;;-3.30;90.90;;;;;;6310160;22;20011;-64
2022/03/07 07:03:39;;;;;;;28.27;17.77;;;-3.30;90.70;;;;;;6310684;22;20006;-64
2022/03/07 07:06:05;;;;;;;31.02;18.75;;;-3.20;90.60;;;;;;6310223;22;20007;-64
2022/03/07 07:08:31;;;;;;;28.60;17.63;;;-3.20;90.20;;;;;;6308575;22;20007;-64
2022/03/07 07:10:57;;;;;;;37.45;18.42;;;-3.10;90.10;;;;;;6309908;22;20008;-65
2022/03/07 07:13:23;;;;;;;26.38;17.77;;;-2.90;89.20;;;;;;6308314;22;20037;-64
2022/03/07 07:15:55;;;;;;;31.02;17.90;;;-2.80;88.70;;;;;;6310613;22;20003;-64
2022/03/07 07:18:22;;;;;;;28.98;17.98;;;-2.80;88.60;;;;;;6310903;22;20003;-66
2022/03/07 07:20:50;;;;;;;31.63;18.27;;;-2.80;88.40;;;;;;6309760;22;20070;-62
2022/03/07 07:23:17;;;;;;;26.88;17.88;;;-2.70;88.30;;;;;;6308201;22;20003;-63
2022/03/07 07:25:45;;;;;;;31.05;19.52;;;-2.60;87.90;;;;;;6309923;22;20348;-63
2022/03/07 07:28:11;;;;;;;32.65;19.10;;;-2.60;87.80;;;;;;6310461;22;20096;-63
2022/03/07 07:30:37;;;;;;;28.58;18.35;;;-2.40;87.40;;;;;;6310203;22;20003;-63
2022/03/07 07:33:03;;;;;;;26.27;17.42;;;-2.30;87.10;;;;;;6310251;22;20015;-63
2022/03/07 07:35:29;;;;;;;27.17;17.98;;;-2.20;86.70;;;;;;6310093;22;20268;-62
2022/03/07 07:37:56;;;;;;;26.98;17.65;;;-2.00;86.20;;;;;;6309505;22;20003;-62
2022/03/07 07:40:22;;;;;;;27.38;17.95;;;-2.10;85.80;;;;;;6309819;22;20006;-64
2022/03/07 07:42:48;;;;;;;33.53;18.05;;;-2.00;85.70;;;;;;6312355;22;19995;-62
2022/03/07 07:45:13;;;;;;;26.60;17.85;;;-1.90;85.40;;;;;;6311989;22;20078;-64
2022/03/07 07:47:40;;;;;;;28.10;18.00;;;-1.90;85.60;;;;;;6312436;22;20076;-62
2022/03/07 07:50:06;;;;;;;28.00;17.60;;;-1.70;84.90;;;;;;6312544;22;20030;-63
2022/03/07 07:52:32;;;;;;;27.05;17.92;;;-1.60;84.10;;;;;;6312292;22;20074;-62
2022/03/07 07:54:57;;;;;;;27.92;16.92;;;-1.50;84.30;;;;;;6310834;22;20057;-62
2022/03/07 07:57:23;;;;;;;29.10;17.90;;;-1.40;83.70;;;;;;6310600;22;20015;-62
2022/03/07 07:59:49;;;;;;;26.27;17.60;;;-1.40;83.60;;;;;;6312283;22;20078;-63
2022/03/07 08:02:14;;;;;;;27.80;19.00;;;-1.30;83.60;;;;;;6311919;22;20000;-61
2022/03/07 08:04:40;;;;;;;26.17;17.67;;;-1.20;83.00;;;;;;6311883;22;20061;-62
2022/03/07 08:07:06;;;;;;;27.17;18.45;;;-1.10;82.30;;;;;;6311984;22;20014;-61
2022/03/07 08:09:32;;;;;;;28.23;17.77;;;-1.00;82.30;;;;;;6309412;22;20074;-62
2022/03/07 08:11:57;;;;;;;26.58;18.30;;;-1.00;82.10;;;;;;6312381;22;20027;-62
2022/03/07 08:14:23;;;;;;;26.70;17.67;;;-0.90;82.20;;;;;;6311415;22;20038;-63
2022/03/07 08:16:49;;;;;;;26.48;17.60;;;-0.80;81.80;;;;;;6312322;22;20004;-62
2022/03/07 08:19:15;;;;;;;26.05;17.23;;;-0.60;81.60;;;;;;6312083;22;19999;-61
2022/03/07 08:21:43;;;;;;;27.45;18.20;;;-0.30;80.40;;;;;;6311896;22;20056;-62
2022/03/07 08:24:09;;;;;;;23.73;16.60;;;-0.10;80.20;;;;;;6310465;22;20260;-63
2022/03/07 08:26:39;;;;;;;21.73;16.58;;;0.40;79.50;;;;;;6312475;22;20022;-62
2022/03/07 08:29:04;;;;;;;22.33;14.70;;;1.50;77.00;;;;;;6311506;22;20006;-62
2022/03/07 08:31:33;;;;;;;21.35;15.07;;;2.30;73.20;;;;;;6312048;22;20026;-62
2022/03/07 08:33:59;;;;;;;21.73;15.05;;;2.80;71.90;;;;;;6311922;22;20006;-62
2022/03/07 08:36:25;;;;;;;23.35;15.95;;;2.70;70.80;;;;;;6312043;22;20003;-61
2022/03/07 08:38:50;;;;;;;22.00;15.73;;;2.90;70.60;;;;;;6310103;22;20341;-61
2022/03/07 08:41:16;;;;;;;21.88;15.50;;;2.60;70.60;;;;;;6311426;22;19999;-62
2022/03/07 08:43:42;;;;;;;21.85;14.88;;;2.50;71.00;;;;;;6311742;22;19991;-63
2022/03/07 08:46:08;;;;;;;24.25;15.57;;;2.20;71.10;;;;;;6311776;22;19996;-62
2022/03/07 08:48:34;;;;;;;20.50;15.00;;;2.30;71.50;;;;;;6312020;22;20072;-61
2022/03/07 08:50:59;;;;;;;22.00;15.10;;;2.60;71.40;;;;;;6310607;22;20360;-62
2022/03/07 08:53:28;;;;;;;25.05;15.43;;;3.50;70.50;;;;;;6309692;22;20056;-62
2022/03/07 08:55:53;;;;;;;20.02;15.15;;;4.30;67.80;;;;;;6312030;22;19999;-62
2022/03/07 08:58:19;;;;;;;21.27;14.45;;;4.90;66.10;;;;;;6311535;22;20003;-62
2022/03/07 09:00:45;;;;;;;23.55;15.43;;;5.30;64.80;;;;;;6311890;22;20004;-63
2022/03/07 09:03:13;;;;;;;22.55;14.82;;;5.20;64.10;;;;;;6311290;22;20263;-61
2022/03/07 09:05:39;;;;;;;22.13;14.88;;;5.30;64.20;;;;;;6311524;22;20082;-62
2022/03/07 09:08:05;;;;;;;19.95;14.20;;;5.70;64.20;;;;;;6310009;22;20390;-62
2022/03/07 09:10:33;;;;;;;21.67;14.82;;;6.40;62.80;;;;;;6311668;22;20422;-62
2022/03/07 09:12:59;;;;;;;20.92;15.00;;;6.90;60.90;;;;;;6311921;22;20361;-62
2022/03/07 09:15:25;;;;;;;23.10;15.32;;;6.30;60.20;;;;;;6311144;22;20007;-62
2022/03/07 09:17:50;;;;;;;20.63;15.48;;;6.50;60.90;;;;;;6311707;22;20003;-62
2022/03/07 09:20:17;;;;;;;18.50;14.75;;;6.80;60.00;;;;;;6311372;22;20365;-61
2022/03/07 09:22:52;;;;;;;20.73;14.65;;;6.90;59.40;;;;;;6311607;22;20003;-62
2022/03/07 09:25:17;;;;;;;22.48;14.68;;;6.70;59.40;;;;;;6310312;22;20026;-62
2022/03/07 09:27:44;;;;;;;21.70;15.50;;;6.80;60.20;;;;;;6311359;22;20006;-62
2022/03/07 09:30:10;;;;;;;21.60;15.10;;;6.00;59.40;;;;;;6311764;22;19999;-64
2022/03/07 09:32:36;;;;;;;20.38;14.85;;;5.20;61.90;;;;;;6311334;22;20026;-64
2022/03/07 09:35:03;;;;;;;21.17;14.55;;;5.60;62.40;;;;;;6311471;22;20402;-64
2022/03/07 09:37:29;;;;;;;19.40;13.73;;;6.80;61.30;;;;;;6311599;22;20000;-63
2022/03/07 09:39:55;;;;;;;21.20;14.70;;;7.70;59.90;;;;;;6310144;22;19999;-63
2022/03/07 09:42:21;;;;;;;19.98;15.07;;;8.30;57.40;;;;;;6311608;22;19995;-64
2022/03/07 09:44:47;;;;;;;21.13;14.70;;;8.20;56.10;;;;;;6311704;22;20000;-63
2022/03/07 09:47:14;;;;;;;18.38;14.15;;;7.20;57.90;;;;;;6310385;22;20027;-65
2022/03/07 09:49:39;;;;;;;21.00;14.43;;;7.50;57.80;;;;;;6310370;22;20372;-63
2022/03/07 09:52:05;;;;;;;18.58;14.10;;;7.40;58.10;;;;;;6310116;22;20046;-64
2022/03/07 09:54:31;;;;;;;20.35;14.45;;;7.40;57.70;;;;;;6309257;22;20007;-64
2022/03/07 09:56:57;;;;;;;17.77;13.48;;;6.60;58.60;;;;;;6310083;22;20010;-63
2022/03/07 09:59:23;;;;;;;15.60;12.88;;;6.90;59.50;;;;;;6309940;22;20007;-62
2022/03/07 10:02:03;;;;;;;18.80;13.70;;;7.50;58.00;;;;;;6310056;22;19999;-64
2022/03/07 10:04:31;;;;;;;18.42;13.13;;;8.00;55.80;;;;;;6309936;22;20361;-62
2022/03/07 10:07:01;;;;;;;22.05;14.27;;;8.00;56.40;;;;;;6309407;22;20019;-62
2022/03/07 10:09:26;;;;;;;18.70;13.40;;;7.00;57.00;;;;;;6308475;22;20050;-62
2022/03/07 10:11:55;;;;;;;18.67;13.77;;;6.50;57.90;;;;;;6310310;22;20007;-64
2022/03/07 10:14:46;;;;;;;17.80;13.65;;;6.60;57.30;;;;;;6310159;22;19999;-62
2022/03/07 10:17:31;;;;;;;17.08;13.13;;;6.40;58.70;;;;;;6309893;22;20003;-62
2022/03/07 10:20:02;;;;;;;19.35;13.95;;;6.90;57.80;;;;;;6309831;22;19999;-62
2022/03/07 10:22:28;;;;;;;18.90;13.82;;;6.90;57.50;;;;;;6311219;22;20102;-63
2022/03/07 10:24:59;;;;;;;19.20;14.55;;;7.20;57.00;;;;;;6309730;22;20234;-64
2022/03/07 10:27:33;;;;;;;18.25;13.85;;;6.50;57.60;;;;;;6311235;22;20078;-63
2022/03/07 10:29:59;;;;;;;20.98;14.25;;;5.70;58.10;;;;;;6311384;22;20032;-64
2022/03/07 10:32:26;;;;;;;21.05;14.95;;;5.40;59.90;;;;;;6311140;22;20003;-64
2022/03/07 10:34:53;;;;;;;23.90;15.32;;;5.20;60.30;;;;;;6311077;22;19999;-64
2022/03/07 10:37:18;;;;;;;20.05;14.55;;;4.60;60.60;;;;;;6310642;22;20395;-64
2022/03/07 10:39:52;;;;;;;21.88;14.40;;;4.90;61.00;;;;;;6309305;22;20074;-64
2022/03/07 10:42:21;;;;;;;19.27;14.20;;;5.70;60.30;;;;;;6310293;22;20083;-64
2022/03/07 10:44:47;;;;;;;21.75;16.25;;;6.40;57.40;;;;;;6310057;22;19999;-64
2022/03/07 10:47:15;;;;;;;21.20;15.50;;;5.60;57.80;;;;;;6311022;22;20006;-63
2022/03/07 10:49:56;;;;;;;19.67;13.95;;;5.00;60.00;;;;;;6309029;22;19999;-67
2022/03/07 10:52:24;;;;;;;22.00;16.33;;;5.40;60.90;;;;;;6310267;22;20265;-63
2022/03/07 10:54:52;;;;;;;20.92;13.20;;;6.20;59.20;;;;;;6308213;22;20072;-63
2022/03/07 10:57:20;;;;;;;21.67;13.93;;;6.50;57.70;;;;;;6311208;22;20023;-64
2022/03/07 10:59:46;;;;;;;20.17;13.85;;;5.50;57.20;;;;;;6310891;22;20237;-62
2022/03/07 11:02:16;;;;;;;20.95;14.43;;;4.30;59.90;;;;;;6310392;22;20079;-65
2022/03/07 11:04:48;;;;;;;22.13;15.02;;;4.20;61.30;;;;;;6310552;22;20007;-63
2022/03/07 11:07:24;;;;;;;20.83;14.13;;;4.90;61.60;;;;;;6309989;22;20011;-63
2022/03/07 11:09:53;;;;;;;20.20;13.80;;;5.10;59.70;;;;;;6309149;22;20004;-64
2022/03/07 11:12:25;;;;;;;19.42;13.68;;;5.00;60.20;;;;;;6310257;22;20074;-63
2022/03/07 11:14:51;;;;;;;20.33;14.23;;;5.10;60.60;;;;;;6309394;22;20038;-65
2022/03/07 11:17:18;;;;;;;18.52;13.52;;;5.20;60.50;;;;;;6310153;22;20056;-65
2022/03/07 11:19:46;;;;;;;18.35;14.25;;;5.10;60.70;;;;;;6310740;22;19995;-64
2022/03/07 11:22:14;;;;;;;22.10;14.82;;;4.80;61.00;;;;;;6310624;22;20005;-65
2022/03/07 11:24:40;;;;;;;19.90;14.07;;;4.50;61.00;;;;;;6309215;22;20269;-67
2022/03/07 11:27:08;;;;;;;21.17;14.32;;;4.70;61.00;;;;;;6309028;22;20360;-65
2022/03/07 11:29:39;;;;;;;19.58;13.90;;;4.60;60.70;;;;;;6310874;22;19995;-63
2022/03/07 11:32:11;;;;;;;18.73;13.50;;;4.90;61.50;;;;;;6310741;22;20019;-65
2022/03/07 11:34:37;;;;;;;17.92;13.15;;;5.30;60.80;;;;;;6310480;22;20048;-63
2022/03/07 11:37:14;;;;;;;18.58;13.13;;;6.00;59.90;;;;;;6309545;22;20004;-64
2022/03/07 11:39:40;;;;;;;19.05;13.43;;;6.80;57.60;;;;;;6309038;22;20007;-64
2022/03/07 11:42:19;;;;;;;17.98;13.35;;;7.00;57.60;;;;;;6310877;22;20061;-63
2022/03/07 11:44:48;;;;;;;16.23;12.40;;;7.00;56.30;;;;;;6310653;22;19991;-65
2022/03/07 11:47:19;;;;;;;16.05;12.20;;;7.30;56.00;;;;;;6310751;22;20007;-64
2022/03/07 11:49:46;;;;;;;20.33;13.82;;;7.80;55.70;;;;;;6310385;22;20002;-64
2022/03/07 11:52:17;;;;;;;18.77;12.85;;;7.70;55.50;;;;;;6310708;22;20007;-64
2022/03/07 11:55:00;;;;;;;18.95;13.40;;;7.40;55.80;;;;;;6307767;22;20358;-65
2022/03/07 11:57:45;;;;;;;17.63;11.57;;;7.70;56.30;;;;;;6310587;22;20291;-64
2022/03/07 12:00:18;;;;;;;16.23;12.55;;;8.20;55.10;;;;;;6310925;22;20010;-65
2022/03/07 12:02:52;;;;;;;16.10;11.97;;;8.40;54.70;;;;;;6310612;22;19999;-64
2022/03/07 12:05:26;;;;;;;;;;;8.50;53.90;;;;;;6310502;22;20292;-64
2022/03/07 12:08:25;;;;;;;19.98;13.23;;;8.20;55.30;;;;;;6308671;22;20009;-64
2022/03/07 12:11:02;;;;;;;18.63;14.27;;;8.30;54.70;;;;;;6309400;22;19999;-64
2022/03/07 12:13:33;;;;;;;16.95;12.80;;;7.90;54.20;;;;;;6310178;22;20064;-64
2022/03/07 12:15:59;;;;;;;17.60;12.82;;;7.70;55.40;;;;;;6310449;22;20007;-63
2022/03/07 12:18:27;;;;;;;18.35;13.77;;;8.00;55.20;;;;;;6310403;22;20031;-63
2022/03/07 12:20:59;;;;;;;16.90;12.38;;;8.20;54.90;;;;;;6310678;22;20253;-64
2022/03/07 12:23:34;;;;;;;16.40;12.77;;;8.20;54.40;;;;;;6308712;22;20022;-64
2022/03/07 12:26:09;;;;;;;17.58;12.15;;;8.70;54.80;;;;;;6310870;22;20078;-63
2022/03/07 12:28:37;;;;;;;16.48;11.80;;;9.40;54.60;;;;;;6312156;22;20074;-64
2022/03/07 12:31:05;;;;;;;16.30;12.68;;;9.70;53.30;;;;;;6311963;22;19999;-65
2022/03/07 12:33:31;;;;;;;16.52;11.95;;;9.30;53.50;;;;;;6310601;22;20010;-66